Time;durP1;ratioP1;P1;durP2;ratioP2;P2;SDS_P1;SDS_P2;PMS_P1;PMS_P2;Temp;Humidity;BMP_temperature;BMP_pressure;BME280_temperature;BME280_humidity;BME280_pressure;Samples;Min_cycle;Max_cycle;Signal;HPM_P1;HPM_P2
2022/03/27 00:01:49;;;;;;;18.20;6.35;;;;;;;10.72;52.08;101156.28;4992034;28;20135;-68
2022/03/27 00:04:15;;;;;;;16.67;5.93;;;;;;;10.61;52.08;101152.00;4992632;28;20026;-68
2022/03/27 00:06:41;;;;;;;14.88;6.15;;;;;;;10.55;52.43;101149.44;4992335;28;20028;-68
2022/03/27 00:09:07;;;;;;;16.98;6.05;;;;;;;10.63;52.23;101158.19;4992314;28;20030;-68
2022/03/27 00:11:32;;;;;;;12.82;5.00;;;;;;;10.58;52.93;101146.72;4991401;28;20018;-68
2022/03/27 00:14:03;;;;;;;13.38;6.55;;;;;;;10.67;52.03;101151.03;4992510;28;20105;-68
2022/03/27 00:16:30;;;;;;;11.93;5.30;;;;;;;10.59;52.82;101147.63;4991974;28;20053;-68
2022/03/27 00:18:55;;;;;;;20.00;5.63;;;;;;;10.66;52.26;101145.75;4995065;28;20102;-68
2022/03/27 00:21:22;;;;;;;14.82;6.40;;;;;;;10.66;51.73;101145.75;5011745;28;20030;-68
2022/03/27 00:23:48;;;;;;;14.45;5.97;;;;;;;10.63;52.46;101152.88;5012168;28;20025;-68
2022/03/27 00:26:14;;;;;;;11.00;4.97;;;;;;;10.67;52.13;101144.84;5011586;28;20072;-69
2022/03/27 00:28:40;;;;;;;9.95;4.80;;;;;;;10.67;52.25;101142.16;5012007;28;20100;-69
2022/03/27 00:31:07;;;;;;;15.18;6.45;;;;;;;10.68;52.05;101146.56;4994035;28;20450;-68
2022/03/27 00:33:34;;;;;;;15.95;5.80;;;;;;;10.66;51.95;101146.59;5011718;28;20377;-68
2022/03/27 00:36:02;;;;;;;14.80;5.65;;;;;;;10.73;52.07;101142.06;5011434;28;20520;-68
2022/03/27 00:38:27;;;;;;;13.02;5.38;;;;;;;10.76;52.59;101147.38;5011895;28;20061;-68
2022/03/27 00:40:53;;;;;;;16.60;5.65;;;;;;;10.73;51.33;101121.66;4993117;28;20081;-68
2022/03/27 00:43:23;;;;;;;14.73;5.50;;;;;;;10.87;51.69;101140.09;4991006;28;20030;-69
2022/03/27 00:45:50;;;;;;;12.52;5.35;;;;;;;10.91;50.46;101141.78;4991433;28;20018;-68
2022/03/27 00:48:20;;;;;;;13.23;6.93;;;;;;;10.91;50.86;101141.78;4992052;28;20027;-68
2022/03/27 00:50:50;;;;;;;11.88;5.15;;;;;;;10.89;51.04;101138.28;4991885;28;20114;-68
2022/03/27 00:53:16;;;;;;;20.23;5.32;;;;;;;10.84;51.86;101140.16;4990100;28;20033;-68
2022/03/27 00:55:44;;;;;;;13.85;5.75;;;;;;;10.84;51.70;101142.81;4991653;28;20438;-68
2022/03/27 00:58:10;;;;;;;18.52;5.65;;;;;;;10.83;51.89;101138.38;4992134;28;20033;-68
2022/03/27 01:00:38;;;;;;;19.27;5.97;;;;;;;10.86;50.93;101139.19;4991614;28;20027;-68
2022/03/27 01:03:11;;;;;;;15.40;5.30;;;;;;;10.82;51.98;101136.63;4993044;28;20026;-68
2022/03/27 01:05:38;;;;;;;10.93;5.15;;;;;;;10.81;51.50;101140.19;4995779;28;20425;-68
2022/03/27 01:08:09;;;;;;;15.27;6.07;;;;;;;10.78;51.16;101132.22;4995961;28;20414;-68
2022/03/27 01:10:36;;;;;;;10.60;5.70;;;;;;;10.77;51.57;101127.81;4995623;28;20022;-68
2022/03/27 01:13:08;;;;;;;15.65;5.57;;;;;;;10.74;52.23;101127.88;4995407;28;20113;-68
2022/03/27 01:15:40;;;;;;;13.13;5.65;;;;;;;10.78;51.76;101124.25;4999700;28;20030;-68
2022/03/27 01:18:07;;;;;;;12.73;5.38;;;;;;;10.70;52.97;101126.16;4995688;28;20475;-68
2022/03/27 01:20:34;;;;;;;17.02;6.18;;;;;;;10.68;52.87;101117.31;4995446;28;20102;-68
2022/03/27 01:23:01;;;;;;;11.70;5.60;;;;;;;10.60;52.33;101115.66;4995346;28;20101;-68
2022/03/27 01:25:27;;;;;;;16.63;5.93;;;;;;;10.60;52.98;101115.66;4993333;28;20076;-68
2022/03/27 01:27:53;;;;;;;13.15;5.85;;;;;;;10.58;52.10;101111.25;4995410;28;20030;-68
2022/03/27 01:30:19;;;;;;;13.32;5.70;;;;;;;10.48;52.87;101105.19;4995083;28;20026;-68
2022/03/27 01:32:45;;;;;;;12.13;5.45;;;;;;;10.55;52.78;101112.19;4995153;28;20030;-68
2022/03/27 01:35:12;;;;;;;20.02;7.18;;;;;;;10.58;52.39;101113.91;4995167;28;20026;-67
2022/03/27 01:37:37;;;;;;;14.75;6.57;;;;;;;10.55;53.02;101111.31;4994835;28;20084;-67
2022/03/27 01:40:04;;;;;;;16.00;5.65;;;;;;;10.50;52.52;101114.06;4995135;28;20109;-67
2022/03/27 01:42:29;;;;;;;18.75;6.65;;;;;;;10.45;53.42;101105.25;4994779;28;20045;-67
2022/03/27 01:44:55;;;;;;;12.55;6.53;;;;;;;10.37;53.09;101109.81;4994626;28;20022;-67
2022/03/27 01:47:20;;;;;;;12.18;5.72;;;;;;;10.26;53.17;101102.88;4994483;28;20133;-67
2022/03/27 01:49:46;;;;;;;15.50;5.90;;;;;;;10.24;54.04;101110.88;4995062;28;20030;-67
2022/03/27 01:52:11;;;;;;;14.75;6.88;;;;;;;10.17;53.77;101111.88;4994731;28;20371;-67
2022/03/27 01:54:36;;;;;;;15.93;6.47;;;;;;;10.11;53.61;101111.97;4993814;28;20392;-67
2022/03/27 01:57:03;;;;;;;14.45;6.20;;;;;;;10.02;54.55;101101.41;4994548;28;20026;-67
2022/03/27 01:59:29;;;;;;;14.55;6.38;;;;;;;10.03;55.32;101112.91;4994239;28;20030;-68
2022/03/27 02:01:54;;;;;;;17.88;5.93;;;;;;;9.83;54.93;101091.03;4994322;28;20019;-68
2022/03/27 02:04:20;;;;;;;17.83;7.05;;;;;;;9.94;55.77;101113.03;4994939;28;20034;-68
2022/03/27 02:06:45;;;;;;;15.63;7.47;;;;;;;9.92;55.85;101112.16;4994601;28;20121;-68
2022/03/27 02:09:12;;;;;;;13.57;5.75;;;;;;;9.85;56.29;101105.19;4994410;28;20022;-68
2022/03/27 02:11:39;;;;;;;13.52;6.35;;;;;;;9.89;56.88;101117.50;4998186;28;20038;-68
2022/03/27 02:14:05;;;;;;;14.00;7.43;;;;;;;9.86;57.35;101123.75;5012221;28;20117;-68
2022/03/27 02:16:30;;;;;;;16.85;7.13;;;;;;;9.81;57.78;101119.38;5004335;28;20576;-68
2022/03/27 02:18:56;;;;;;;15.27;7.13;;;;;;;9.76;57.59;101124.75;4994420;28;20041;-68
2022/03/27 02:21:21;;;;;;;12.05;6.55;;;;;;;9.65;57.94;101107.19;4994353;28;20402;-68
2022/03/27 02:23:47;;;;;;;18.17;7.03;;;;;;;9.73;58.08;101121.25;4994538;28;20494;-68
2022/03/27 02:26:12;;;;;;;18.05;7.28;;;;;;;9.69;59.27;101115.09;4976618;28;20029;-68
2022/03/27 02:28:39;;;;;;;16.88;7.30;;;;;;;9.67;59.13;101122.19;4994363;28;20073;-68
2022/03/27 02:31:05;;;;;;;13.90;6.38;;;;;;;9.68;58.60;101121.31;4994401;28;20033;-68
2022/03/27 02:33:30;;;;;;;21.20;6.68;;;;;;;9.62;58.63;101107.22;4994164;28;20022;-68
2022/03/27 02:35:56;;;;;;;16.00;6.38;;;;;;;9.71;58.32;101113.31;4994200;28;20124;-68
2022/03/27 02:38:22;;;;;;;13.98;6.53;;;;;;;9.71;58.46;101110.66;4993869;28;20546;-68
2022/03/27 02:40:48;;;;;;;16.17;7.40;;;;;;;9.71;58.88;101120.38;4994117;28;20029;-68
2022/03/27 02:43:13;;;;;;;17.48;7.25;;;;;;;9.68;58.69;101116.00;4994088;28;20034;-68
2022/03/27 02:45:40;;;;;;;15.77;6.82;;;;;;;9.75;59.15;101115.00;4993784;28;20057;-68
2022/03/27 02:48:06;;;;;;;14.05;7.05;;;;;;;9.76;59.14;101115.91;4993852;28;20437;-68
2022/03/27 02:50:31;;;;;;;19.98;6.75;;;;;;;9.71;58.95;101115.06;4994051;28;20497;-68
2022/03/27 02:52:58;;;;;;;18.77;6.45;;;;;;;9.66;59.75;101119.56;4993846;28;20018;-68
2022/03/27 02:55:24;;;;;;;14.98;7.63;;;;;;;9.56;60.21;101109.94;4992760;28;20026;-68
2022/03/27 02:57:50;;;;;;;17.65;7.35;;;;;;;9.49;60.52;101114.44;4993652;28;20045;-68
2022/03/27 03:00:17;;;;;;;12.48;6.78;;;;;;;9.35;60.95;101095.13;4993777;28;20030;-68
2022/03/27 03:02:42;;;;;;;16.45;7.00;;;;;;;9.38;60.90;101113.66;4993582;28;20068;-68
2022/03/27 03:05:09;;;;;;;20.85;7.10;;;;;;;9.38;61.46;101115.44;4993507;28;20030;-68
2022/03/27 03:07:38;;;;;;;15.85;6.20;;;;;;;9.25;62.08;101120.00;4995307;28;20068;-68
2022/03/27 03:10:04;;;;;;;17.45;7.65;;;;;;;9.27;62.46;101118.22;5013188;28;20088;-68
2022/03/27 03:12:29;;;;;;;16.35;7.15;;;;;;;9.21;62.47;101115.59;5013149;28;20026;-68
2022/03/27 03:14:56;;;;;;;19.67;7.57;;;;;;;9.19;62.39;101120.06;5012819;28;20456;-68
2022/03/27 03:17:23;;;;;;;15.68;6.53;;;;;;;9.16;63.14;101120.06;4996348;28;20057;-68
2022/03/27 03:19:48;;;;;;;20.15;8.05;;;;;;;9.01;63.29;101106.97;4993544;28;20583;-68
2022/03/27 03:22:15;;;;;;;24.00;8.10;;;;;;;9.03;63.47;101111.34;4993004;28;20029;-67
2022/03/27 03:24:41;;;;;;;16.52;7.75;;;;;;;9.02;63.38;101130.84;4992612;28;20030;-67
2022/03/27 03:27:06;;;;;;;18.50;7.38;;;;;;;8.95;63.68;101128.22;4992805;28;20072;-67
2022/03/27 03:29:33;;;;;;;17.77;7.28;;;;;;;8.95;64.14;101128.22;4992794;28;20380;-67
2022/03/27 03:31:58;;;;;;;14.13;7.18;;;;;;;8.95;64.16;101123.81;4993016;28;20037;-68
2022/03/27 03:34:23;;;;;;;17.63;8.27;;;;;;;8.95;64.06;101117.63;4992726;28;20022;-68
2022/03/27 03:36:49;;;;;;;20.65;7.97;;;;;;;8.93;64.11;101122.94;4992160;28;20106;-68
2022/03/27 03:39:14;;;;;;;15.38;6.72;;;;;;;8.83;64.21;101117.75;4993048;28;20113;-68
2022/03/27 03:41:40;;;;;;;22.80;7.88;;;;;;;8.85;64.75;101131.84;4992952;28;20033;-68
2022/03/27 03:44:06;;;;;;;19.05;8.02;;;;;;;8.78;64.77;101133.66;4992899;28;20046;-68
2022/03/27 03:46:32;;;;;;;15.52;6.82;;;;;;;8.75;65.10;101130.16;4992520;28;20058;-68
2022/03/27 03:48:57;;;;;;;15.10;7.50;;;;;;;8.69;65.42;101130.22;4992910;28;20482;-68
2022/03/27 03:51:22;;;;;;;17.02;8.27;;;;;;;8.71;65.79;101124.03;4991092;28;20032;-68
2022/03/27 03:53:48;;;;;;;14.30;6.93;;;;;;;8.63;66.70;101131.13;4991980;28;20117;-68
2022/03/27 03:56:14;;;;;;;18.67;7.85;;;;;;;8.60;66.38;101119.69;4991816;28;20077;-68
2022/03/27 03:58:39;;;;;;;18.45;7.93;;;;;;;8.48;67.81;101127.72;4992723;28;20093;-68
2022/03/27 04:01:05;;;;;;;16.23;7.88;;;;;;;8.48;68.29;101130.34;4992036;28;20030;-68
2022/03/27 04:03:30;;;;;;;16.80;6.60;;;;;;;8.47;69.12;101117.97;4992513;28;20081;-68
2022/03/27 04:05:56;;;;;;;16.05;8.48;;;;;;;8.51;68.77;101130.34;4992918;28;20026;-68
2022/03/27 04:08:21;;;;;;;16.40;7.03;;;;;;;8.50;68.63;101120.63;4992591;28;20031;-68
2022/03/27 04:10:47;;;;;;;15.27;6.72;;;;;;;8.56;68.06;101128.53;4992509;28;20018;-68
2022/03/27 04:13:13;;;;;;;17.02;8.32;;;;;;;8.50;68.61;101137.41;4992405;28;20057;-68
2022/03/27 04:15:39;;;;;;;18.55;8.15;;;;;;;8.53;68.97;101120.59;4992249;28;20385;-68
2022/03/27 04:18:05;;;;;;;21.55;8.40;;;;;;;8.45;68.96;101109.19;4992295;28;20101;-68
2022/03/27 04:20:30;;;;;;;14.85;7.85;;;;;;;8.53;69.24;101132.09;4991979;28;20128;-68
2022/03/27 04:22:56;;;;;;;17.13;8.20;;;;;;;8.50;69.57;101125.94;4992304;28;20042;-68
2022/03/27 04:25:21;;;;;;;21.45;8.05;;;;;;;8.42;69.84;101135.72;4992030;28;20034;-67
2022/03/27 04:27:47;;;;;;;17.10;8.60;;;;;;;8.38;70.10;101131.31;4992334;28;20028;-67
2022/03/27 04:30:13;;;;;;;14.60;7.50;;;;;;;8.30;70.21;101130.47;4974499;28;20018;-67
2022/03/27 04:32:39;;;;;;;18.98;8.48;;;;;;;8.29;70.17;101129.59;4992159;28;20490;-68
2022/03/27 04:35:07;;;;;;;20.63;8.60;;;;;;;8.29;70.27;101129.59;4992038;28;20041;-67
2022/03/27 04:37:38;;;;;;;20.08;9.82;;;;;;;8.31;70.61;101141.06;4991671;28;20356;-67
2022/03/27 04:40:04;;;;;;;21.67;9.10;;;;;;;8.17;70.76;101115.50;4992149;28;20120;-67
2022/03/27 04:42:29;;;;;;;22.05;9.20;;;;;;;8.24;71.25;101135.81;4992134;28;20053;-67
2022/03/27 04:44:55;;;;;;;17.63;7.93;;;;;;;8.27;71.37;101131.34;4991912;28;20042;-67
2022/03/27 04:47:21;;;;;;;15.63;8.27;;;;;;;8.21;71.07;101119.88;4991936;28;20132;-67
2022/03/27 04:49:47;;;;;;;14.85;7.63;;;;;;;8.32;71.87;101139.31;4991789;28;20196;-67
2022/03/27 04:52:12;;;;;;;18.20;9.40;;;;;;;8.34;70.96;101137.50;4991971;28;20544;-67
2022/03/27 04:54:38;;;;;;;16.65;8.52;;;;;;;8.38;70.86;101131.31;4991276;28;20038;-67
2022/03/27 04:57:04;;;;;;;16.75;8.35;;;;;;;8.36;71.15;101135.72;4991974;28;20524;-68
2022/03/27 04:59:29;;;;;;;18.52;7.88;;;;;;;8.38;71.04;101133.97;4991950;28;20097;-68
2022/03/27 05:01:57;;;;;;;18.95;9.48;;;;;;;8.43;70.89;101137.47;5001498;28;20014;-68
2022/03/27 05:04:22;;;;;;;28.20;10.00;;;;;;;8.37;70.54;101126.91;4991665;28;20038;-68
2022/03/27 05:06:48;;;;;;;17.38;9.18;;;;;;;8.33;71.39;101125.16;4992214;28;20026;-69
2022/03/27 05:09:13;;;;;;;25.40;8.45;;;;;;;8.48;70.98;101140.97;4991799;28;20037;-68
2022/03/27 05:11:39;;;;;;;19.27;8.02;;;;;;;8.52;70.89;101135.63;4991823;28;20458;-68
2022/03/27 05:14:04;;;;;;;18.63;8.50;;;;;;;8.46;70.63;101116.22;4991939;28;20029;-68
2022/03/27 05:16:29;;;;;;;21.83;8.57;;;;;;;8.53;70.83;101133.88;4991611;28;20022;-68
2022/03/27 05:18:55;;;;;;;16.80;7.55;;;;;;;8.46;70.22;101124.19;4987691;28;20034;-68
2022/03/27 05:21:21;;;;;;;21.88;9.45;;;;;;;8.52;70.53;101134.72;4988414;28;20050;-68
2022/03/27 05:23:46;;;;;;;13.50;7.43;;;;;;;8.48;70.83;101133.91;4991359;28;20033;-68
2022/03/27 05:26:12;;;;;;;18.00;7.53;;;;;;;8.38;70.45;101141.91;4989889;28;20477;-68
2022/03/27 05:28:37;;;;;;;19.25;8.70;;;;;;;8.40;70.85;101137.50;4991536;28;20034;-68
2022/03/27 05:31:08;;;;;;;16.42;7.75;;;;;;;8.44;70.42;101145.41;4991309;28;20548;-68
2022/03/27 05:33:37;;;;;;;18.33;8.57;;;;;;;8.45;70.71;101149.81;4991499;28;20069;-68
2022/03/27 05:36:04;;;;;;;18.70;9.20;;;;;;;8.45;70.68;101151.59;4974028;28;20069;-68
2022/03/27 05:38:30;;;;;;;16.42;8.25;;;;;;;8.34;70.49;101138.38;4991082;28;20106;-68
2022/03/27 05:40:55;;;;;;;15.02;7.68;;;;;;;8.49;70.62;101158.63;4991624;28;20072;-68
2022/03/27 05:43:20;;;;;;;16.92;8.80;;;;;;;8.57;69.92;101167.41;4991347;28;20042;-68
2022/03/27 05:45:46;;;;;;;17.13;8.02;;;;;;;8.66;70.13;101164.72;4991151;28;20026;-68
2022/03/27 05:48:12;;;;;;;21.02;8.20;;;;;;;8.78;69.63;101168.16;4992079;28;20040;-68
2022/03/27 05:50:38;;;;;;;21.30;8.05;;;;;;;8.89;70.02;101163.66;4994525;28;20018;-68
2022/03/27 05:53:03;;;;;;;19.52;8.52;;;;;;;9.39;68.11;101168.53;4977709;28;20031;-68
2022/03/27 05:55:29;;;;;;;16.55;7.10;;;;;;;9.46;66.37;101151.66;4994135;28;20038;-68
2022/03/27 05:57:54;;;;;;;17.83;8.43;;;;;;;9.69;65.07;101178.84;4994474;28;20136;-68
2022/03/27 06:00:20;;;;;;;16.73;8.73;;;;;;;9.71;64.89;101179.72;4994213;28;20027;-68
2022/03/27 06:02:47;;;;;;;19.65;8.90;;;;;;;9.90;64.67;101181.25;4994578;28;20022;-68
2022/03/27 06:05:12;;;;;;;17.25;8.57;;;;;;;9.93;64.16;101162.66;4994219;28;20038;-68
2022/03/27 06:07:46;;;;;;;14.07;7.35;;;;;;;10.25;63.65;101181.75;4977258;28;20079;-68
2022/03/27 06:10:12;;;;;;;14.15;8.75;;;;;;;10.67;62.11;101184.75;4977108;28;20022;-68
2022/03/27 06:12:39;;;;;;;18.13;7.25;;;;;;;11.26;59.91;101185.59;4994710;28;20522;-68
2022/03/27 06:15:05;;;;;;;15.07;7.55;;;;;;;12.12;58.56;101181.34;4994223;28;20018;-68
2022/03/27 06:17:41;;;;;;;16.98;7.60;;;;;;;13.28;54.04;101175.16;4994127;28;20133;-68
2022/03/27 06:20:08;;;;;;;18.65;8.48;;;;;;;14.89;49.56;101184.75;4994753;28;20022;-68
2022/03/27 06:22:34;;;;;;;21.27;8.57;;;;;;;16.65;46.43;101186.59;4994020;28;20038;-68
2022/03/27 06:25:00;;;;;;;17.30;7.38;;;;;;;18.16;41.10;101183.75;4993403;28;20092;-68
2022/03/27 06:27:25;;;;;;;19.15;8.50;;;;;;;19.12;39.01;101180.13;4994253;28;20022;-68
2022/03/27 06:29:50;;;;;;;16.25;7.45;;;;;;;19.75;36.72;101185.03;4994187;28;20037;-69
2022/03/27 06:32:16;;;;;;;23.33;8.48;;;;;;;20.42;35.43;101193.16;4994375;28;20026;-69
2022/03/27 06:34:41;;;;;;;17.65;6.97;;;;;;;20.60;35.47;101193.03;4994228;28;20378;-69
2022/03/27 06:37:08;;;;;;;11.98;6.80;;;;;;;21.39;34.35;101178.56;4994055;28;20026;-69
2022/03/27 06:39:33;;;;;;;16.65;7.45;;;;;;;22.18;32.83;101196.34;4994081;28;20046;-69
2022/03/27 06:41:59;;;;;;;16.15;6.97;;;;;;;22.14;32.35;101194.81;4994043;28;20026;-69
2022/03/27 06:44:24;;;;;;;18.38;7.80;;;;;;;22.12;32.37;101194.03;4993824;28;20084;-69
2022/03/27 06:46:50;;;;;;;15.13;7.28;;;;;;;22.34;32.28;101202.56;4993626;28;20038;-69
2022/03/27 06:49:15;;;;;;;16.15;8.15;;;;;;;22.42;32.22;101211.09;4976446;28;20030;-69
2022/03/27 06:51:40;;;;;;;18.55;7.88;;;;;;;22.63;31.97;101207.09;4993729;28;20034;-69
2022/03/27 06:54:06;;;;;;;18.30;7.63;;;;;;;22.81;30.73;101208.63;5007314;28;20416;-69
2022/03/27 06:56:32;;;;;;;15.90;7.05;;;;;;;23.21;30.76;101198.75;5013200;28;20057;-69
2022/03/27 06:58:58;;;;;;;16.20;7.07;;;;;;;23.40;31.23;101211.06;5013561;28;20038;-69
2022/03/27 07:04:07;;;;;;;18.20;7.25;;;;;;;24.31;29.46;101213.81;4993857;28;20037;-69
2022/03/27 07:06:33;;;;;;;17.08;6.90;;;;;;;24.67;29.22;101205.78;4993261;28;20381;-69
2022/03/27 07:09:00;;;;;;;15.30;7.78;;;;;;;25.06;28.21;101202.00;4993862;28;20034;-69
2022/03/27 07:11:25;;;;;;;14.00;6.80;;;;;;;24.94;28.47;101211.09;4993098;28;20098;-69
2022/03/27 07:13:50;;;;;;;18.08;7.95;;;;;;;25.43;28.41;101211.97;4993467;28;20529;-69
2022/03/27 07:16:16;;;;;;;19.48;8.13;;;;;;;25.67;28.29;101210.09;4992951;28;20022;-69
2022/03/27 07:18:42;;;;;;;19.00;8.40;;;;;;;25.22;28.06;101191.69;4993520;28;20105;-69
2022/03/27 07:21:08;;;;;;;15.85;7.47;;;;;;;25.16;29.10;101199.47;4992830;28;20428;-69
2022/03/27 07:23:33;;;;;;;20.95;8.40;;;;;;;25.69;28.43;101202.66;4992211;28;20030;-69
2022/03/27 07:26:00;;;;;;;15.80;7.05;;;;;;;25.85;28.77;101202.34;4975714;28;20037;-69
2022/03/27 07:28:28;;;;;;;17.95;8.00;;;;;;;26.04;28.08;101207.28;4993036;28;20468;-69
2022/03/27 07:30:54;;;;;;;20.38;8.82;;;;;;;25.82;28.17;101206.19;4993255;28;20026;-69
2022/03/27 07:33:21;;;;;;;16.15;7.50;;;;;;;25.29;27.94;101209.34;4993005;28;20075;-69
2022/03/27 07:35:47;;;;;;;19.25;7.43;;;;;;;25.38;28.03;101208.69;4992253;28;20070;-69
2022/03/27 07:38:13;;;;;;;14.20;6.72;;;;;;;24.96;28.54;101211.81;4992550;28;20041;-69
2022/03/27 07:40:39;;;;;;;20.95;8.88;;;;;;;25.00;28.83;101207.03;4991659;28;20030;-69
2022/03/27 07:43:04;;;;;;;19.50;8.25;;;;;;;24.91;29.44;101208.56;4992037;28;20101;-69
2022/03/27 07:45:31;;;;;;;20.98;7.80;;;;;;;24.86;29.19;101216.19;4992426;28;20105;-69
2022/03/27 07:47:57;;;;;;;19.65;7.05;;;;;;;24.16;30.00;101211.28;4992650;28;20049;-69
2022/03/27 07:50:26;;;;;;;17.58;7.78;;;;;;;24.11;29.66;101200.75;5007111;28;20092;-69
2022/03/27 07:52:51;;;;;;;13.52;6.85;;;;;;;24.21;30.51;101206.41;5012649;28;20477;-69
2022/03/27 07:55:20;;;;;;;18.80;7.75;;;;;;;23.64;30.90;101213.09;5011718;28;20080;-69
2022/03/27 07:57:45;;;;;;;15.52;7.45;;;;;;;23.15;31.79;101213.59;5000775;28;20470;-69
2022/03/27 08:00:13;;;;;;;14.65;6.53;;;;;;;23.22;30.73;101209.53;4991358;28;20096;-69
2022/03/27 08:02:40;;;;;;;19.05;7.60;;;;;;;23.13;31.96;101215.53;4991578;28;20056;-69
2022/03/27 08:05:06;;;;;;;17.92;7.97;;;;;;;23.38;31.08;101204.84;4992304;28;20093;-69
2022/03/27 08:07:31;;;;;;;20.65;7.38;;;;;;;23.40;31.35;101202.91;4992406;28;20117;-69
2022/03/27 08:09:57;;;;;;;17.42;8.35;;;;;;;23.69;31.23;101208.22;4991916;28;20026;-70
2022/03/27 08:12:23;;;;;;;15.35;7.00;;;;;;;23.32;31.81;101199.84;4974206;28;20566;-69
2022/03/27 08:14:48;;;;;;;16.10;7.10;;;;;;;23.30;31.70;101207.19;4991718;28;20026;-69
2022/03/27 08:17:15;;;;;;;15.82;7.25;;;;;;;23.53;30.54;101199.34;4991845;28;20030;-69
2022/03/27 08:19:41;;;;;;;17.15;7.70;;;;;;;23.63;31.34;101197.75;4992424;28;20113;-69
2022/03/27 08:22:06;;;;;;;16.27;7.30;;;;;;;23.75;31.64;101207.78;4991661;28;20105;-69
2022/03/27 08:24:33;;;;;;;20.50;9.57;;;;;;;23.73;31.69;101205.19;4991144;28;20555;-69
2022/03/27 08:27:00;;;;;;;16.35;7.57;;;;;;;23.60;32.12;101204.28;4992323;28;20444;-69
2022/03/27 08:29:31;;;;;;;15.15;7.70;;;;;;;23.88;31.56;101200.53;4992328;28;20026;-69
2022/03/27 08:32:00;;;;;;;16.05;7.45;;;;;;;23.85;31.24;101206.19;4991369;28;20042;-69
2022/03/27 08:34:28;;;;;;;13.95;7.03;;;;;;;23.96;32.38;101196.34;4992199;28;20081;-69
2022/03/27 08:36:55;;;;;;;19.88;7.82;;;;;;;24.34;30.09;101210.00;4992135;28;20022;-69
2022/03/27 08:39:21;;;;;;;18.98;7.70;;;;;;;24.42;30.99;101202.16;4992276;28;20042;-69
2022/03/27 08:41:48;;;;;;;16.33;7.03;;;;;;;24.95;31.10;101203.78;4991220;28;20030;-69
2022/03/27 08:44:18;;;;;;;21.08;9.63;;;;;;;25.09;30.53;101201.78;4991805;28;20485;-69
2022/03/27 08:46:45;;;;;;;19.48;9.48;;;;;;;24.91;30.37;101202.28;4994682;28;20046;-69
2022/03/27 08:49:53;;;;;;;20.50;9.00;;;;;;;24.99;30.14;101203.44;4992170;28;20026;-70
2022/03/27 08:52:21;;;;;;;15.07;7.28;;;;;;;24.91;30.17;101203.13;4985191;28;20092;-69
2022/03/27 08:54:57;;;;;;;21.05;9.57;;;;;;;25.01;31.15;101198.75;4991518;28;20034;-70
2022/03/27 08:57:58;;;;;;;20.15;8.13;;;;;;;24.77;30.43;101200.56;4991907;28;20500;-69
2022/03/27 09:00:30;;;;;;;15.73;7.13;;;;;;;25.03;30.33;101207.69;4992061;28;20022;-69
2022/03/27 09:02:56;;;;;;;15.07;7.88;;;;;;;25.27;30.16;101203.13;4976969;28;20033;-69
2022/03/27 09:05:23;;;;;;;15.90;7.72;;;;;;;25.53;30.60;101204.81;4976162;28;20085;-69
2022/03/27 09:07:49;;;;;;;16.02;7.43;;;;;;;25.62;28.60;101204.13;4992099;28;20479;-70
2022/03/27 09:10:16;;;;;;;16.67;7.32;;;;;;;25.60;29.38;101202.50;4990961;28;20026;-70
2022/03/27 09:12:44;;;;;;;18.67;7.70;;;;;;;25.82;30.05;101213.50;4991812;28;20771;-70
2022/03/27 09:15:11;;;;;;;13.52;6.75;;;;;;;26.14;28.21;101216.50;4992134;28;20019;-70
2022/03/27 09:18:02;;;;;;;15.02;7.22;;;;;;;26.51;29.68;101213.47;4991605;28;20477;-70
2022/03/27 09:20:37;;;;;;;12.68;6.50;;;;;;;26.64;30.12;101216.94;4991911;28;20105;-70
2022/03/27 09:23:25;;;;;;;14.63;7.18;;;;;;;27.01;28.49;101206.69;4993025;28;20022;-70
2022/03/27 09:25:58;;;;;;;19.92;7.55;;;;;;;27.12;28.34;101207.53;4997935;28;20026;-69
2022/03/27 09:28:29;;;;;;;14.93;6.80;;;;;;;26.98;29.18;101215.16;4995042;28;20473;-69
2022/03/27 09:30:58;;;;;;;14.05;6.60;;;;;;;26.95;27.72;101207.22;4993901;28;20508;-69
2022/03/27 09:33:46;;;;;;;14.27;7.03;;;;;;;27.54;27.27;101208.63;4995752;28;20050;-69
2022/03/27 09:36:16;;;;;;;18.48;7.18;;;;;;;27.33;27.31;101210.38;4995595;28;20623;-69
2022/03/27 09:39:07;;;;;;;13.60;6.80;;;;;;;27.73;27.21;101214.25;4995592;28;20049;-69
2022/03/27 09:41:37;;;;;;;16.63;7.05;;;;;;;27.58;27.83;101201.03;4981373;28;20026;-69
2022/03/27 09:44:09;;;;;;;17.05;7.55;;;;;;;27.55;27.91;101196.66;5015105;28;20054;-69
2022/03/27 09:46:47;;;;;;;13.93;7.53;;;;;;;27.36;27.26;101193.75;5004502;28;20050;-69
2022/03/27 09:49:14;;;;;;;19.65;6.68;;;;;;;27.34;28.69;101193.00;4995238;28;20026;-69
2022/03/27 09:51:54;;;;;;;13.70;7.00;;;;;;;27.43;27.79;101180.44;4993836;28;20096;-69
2022/03/27 09:54:19;;;;;;;16.00;7.60;;;;;;;28.06;28.11;101186.78;4976841;28;20030;-70
2022/03/27 09:56:45;;;;;;;15.35;7.53;;;;;;;28.40;27.40;101192.94;4995001;28;20041;-70
2022/03/27 09:59:34;;;;;;;13.43;6.70;;;;;;;28.56;27.47;101179.63;4995103;28;20023;-69
2022/03/27 10:02:41;;;;;;;106.88;13.02;;;;;;;28.71;28.10;101180.13;4994485;28;20026;-70
2022/03/27 10:05:20;;;;;;;14.65;7.05;;;;;;;29.12;26.13;101180.91;4915717;29;20568;-69
2022/03/27 10:07:54;;;;;;;16.27;6.75;;;;;;;29.24;26.86;101170.69;4915396;29;20067;-69
2022/03/27 10:10:21;;;;;;;18.45;7.05;;;;;;;29.17;27.60;101180.47;4965672;28;20173;-69
2022/03/27 10:12:49;;;;;;;83.05;12.43;;;;;;;29.13;26.09;101176.28;4993840;28;20029;-69
2022/03/27 10:15:24;;;;;;;20.13;6.32;;;;;;;29.16;25.22;101173.28;4994128;28;20037;-69
2022/03/27 10:18:04;;;;;;;17.13;7.10;;;;;;;29.27;27.14;101167.66;4984693;28;20150;-69
2022/03/27 10:20:35;;;;;;;17.45;7.22;;;;;;;29.10;26.19;101149.16;4990949;28;20377;-68
2022/03/27 10:23:07;;;;;;;17.05;6.45;;;;;;;28.65;26.00;101156.06;4990503;28;20367;-68
2022/03/27 10:25:45;;;;;;;14.18;5.55;;;;;;;28.86;27.77;101155.00;4990140;28;20026;-68
2022/03/27 10:28:11;;;;;;;22.55;7.63;;;;;;;29.59;26.02;101154.56;4994537;28;20030;-68
2022/03/27 10:30:38;;;;;;;16.67;5.65;;;;;;;29.63;26.19;101156.03;4994361;28;20121;-68
2022/03/27 10:33:06;;;;;;;14.25;6.00;;;;;;;28.98;24.73;101147.53;4994301;28;20022;-68
2022/03/27 10:36:07;;;;;;;14.27;6.35;;;;;;;28.65;26.53;101139.63;4993267;28;20584;-68
2022/03/27 10:39:00;;;;;;;16.17;6.85;;;;;;;29.14;26.32;101134.19;4970321;28;20496;-67
2022/03/27 10:41:47;;;;;;;13.27;6.25;;;;;;;29.54;26.37;101144.03;4976026;28;20030;-66
2022/03/27 10:44:26;;;;;;;15.15;6.20;;;;;;;29.69;25.37;101133.53;4994168;28;20113;-66
2022/03/27 10:47:10;;;;;;;15.45;6.32;;;;;;;30.09;25.10;101136.97;4993785;28;20053;-66
2022/03/27 10:49:36;;;;;;;19.58;6.72;;;;;;;30.40;26.16;101130.25;4994453;28;20772;-66
2022/03/27 10:52:05;;;;;;;13.40;6.07;;;;;;;30.02;24.67;101133.06;4993930;28;20113;-66
2022/03/27 10:54:31;;;;;;;16.75;6.18;;;;;;;29.67;24.54;101136.41;4993404;28;20034;-67
2022/03/27 10:56:58;;;;;;;14.07;5.97;;;;;;;29.89;24.74;101129.75;4993749;28;20398;-67
2022/03/27 10:59:27;;;;;;;13.05;5.70;;;;;;;30.21;25.60;101113.81;4993918;28;20105;-67
2022/03/27 11:01:59;;;;;;;23.45;7.45;;;;;;;30.73;25.42;101121.44;4986514;28;20486;-67
2022/03/27 11:04:41;;;;;;;14.13;5.88;;;;;;;30.55;22.91;101117.78;4974495;28;20031;-67
2022/03/27 11:07:33;;;;;;;11.85;6.07;;;;;;;30.46;24.21;101115.91;4974222;28;20054;-67
2022/03/27 11:09:58;;;;;;;15.30;7.47;;;;;;;30.46;24.06;101107.69;4985823;28;20049;-66
2022/03/27 11:12:24;;;;;;;17.45;6.22;;;;;;;30.84;25.79;101106.69;4993425;28;20034;-66
2022/03/27 11:14:52;;;;;;;17.20;5.95;;;;;;;30.70;23.89;101104.41;4993321;28;20030;-66
2022/03/27 11:17:33;;;;;;;11.40;6.38;;;;;;;30.65;24.24;101104.88;4992192;28;20117;-66
2022/03/27 11:19:59;;;;;;;14.43;6.47;;;;;;;30.94;24.41;101092.88;4993278;28;20026;-66
2022/03/27 11:22:51;;;;;;;15.57;5.43;;;;;;;31.69;22.94;101107.09;4993342;28;20038;-66
2022/03/27 11:25:33;;;;;;;13.13;5.95;;;;;;;31.53;23.01;101099.53;4992759;28;20082;-66
2022/03/27 11:28:02;;;;;;;13.27;6.40;;;;;;;31.71;23.51;101096.81;4973968;28;20025;-66